Liberty Park, Washington
Current Conditions -  °F | °C
As of 11:53 PM on Tuesday 25 Nov 2014 (Local Time) from KSFF Reporting Station
Haze Haze  
Wind Chill: 35°   Ceiling: 900
Heat Index: 35°   Visibility: 4mi
Dew Point: 33°   Wind: 0mph
Humidity: 92%   Direction: NA
Pressure: 30.18"   Gusts: NA
Location:  47.6483°N, 117.412°W
Report Text: KSFF 260753Z AUTO 00000KT 4SM BR OVC009 02/01 A3018 RMK AO2 UPB0658E13 SLP233 P0000 T00170006 400670017
Loading
Personal Weather Stations






























Interactive Weather Map New forecast layout! Learn more

10-Day Weather Forecast

Advertisements
Track Severe Weather on mobile